Terminal Aerodrome Forecast
Issued by NWS

Home | Current Version | Previous Version | Text Only | Print | Product List | Glossary On
Versions: 1 2 3 4 5 6 7 8 9 10 11 12 13 14 15 16 17 18 19
971
FTUS45 KABQ 292334
TAFTCC
TAF
KTCC 292334Z 3000/3024 02018G28KT P6SM SCT070 BKN130
     FM300100 02011KT P6SM SCT070 BKN150
     FM300400 29007KT P6SM FEW060
     FM301500 26008KT P6SM SCT250
     FM302300 23010KT P6SM SCT250=

USA.gov is the U.S. government's official web portal to all federal, state and local government web resources and services.